Wetterdaten: Woche 23.10.17 - 29.10.17 (KW43)
Datum Zeit Temperatur Luftfeuchte Luftdruck Niederschlag Windrichtung Sonnenschein Solar Wind
23.10.2017 00:00 6,5 C 90 % 1017,9 hPa 0,0 l/m W-SW 0,00 h 0 W/m 10,5 km/h (2 Bft)
23.10.2017 01:00 6,4 C 90 % 1017,9 hPa 0,0 l/m W-SW 0,00 h 0 W/m 10,7 km/h (2 Bft)
23.10.2017 02:00 6,3 C 91 % 1017,7 hPa 0,0 l/m W-SW 0,00 h 0 W/m 15,3 km/h (3 Bft)
23.10.2017 03:00 6,2 C 91 % 1017,7 hPa 0,0 l/m W-SW 0,00 h 0 W/m 10,7 km/h (2 Bft)
23.10.2017 04:00 6,1 C 92 % 1018,1 hPa 0,0 l/m W-SW 0,00 h 0 W/m 12,8 km/h (3 Bft)
23.10.2017 05:00 6,1 C 91 % 1018,3 hPa 0,0 l/m W 0,00 h 0 W/m 11,7 km/h (2 Bft)
23.10.2017 06:00 6,1 C 91 % 1018,6 hPa 0,0 l/m W 0,00 h 0 W/m 8,4 km/h (2 Bft)
23.10.2017 07:00 6,0 C 90 % 1018,8 hPa 0,0 l/m W 0,00 h 0 W/m 12,3 km/h (3 Bft)
23.10.2017 08:00 6,1 C 90 % 1019,3 hPa 0,0 l/m W 0,00 h 65 W/m 12,4 km/h (3 Bft)
23.10.2017 09:00 6,6 C 89 % 1019,7 hPa 0,0 l/m W 0,00 h 97 W/m 11,2 km/h (2 Bft)
23.10.2017 10:00 7,5 C 86 % 1020,1 hPa 0,0 l/m W 0,08 h 156 W/m 13,6 km/h (3 Bft)
23.10.2017 11:00 7,9 C 84 % 1020,4 hPa 0,0 l/m W 0,00 h 142 W/m 15,7 km/h (3 Bft)
23.10.2017 12:00 7,8 C 88 % 1020,6 hPa 0,2 l/m W 0,00 h 136 W/m 12,3 km/h (3 Bft)
23.10.2017 13:00 8,5 C 84 % 1020,6 hPa 0,0 l/m W-NW 0,00 h 145 W/m 10,6 km/h (2 Bft)
23.10.2017 14:00 8,2 C 86 % 1020,8 hPa 0,2 l/m W-NW 0,00 h 76 W/m 12,1 km/h (2 Bft)
23.10.2017 15:00 8,6 C 83 % 1021,0 hPa 0,0 l/m W-NW 0,17 h 174 W/m 13,8 km/h (3 Bft)
23.10.2017 16:00 9,7 C 74 % 1021,3 hPa 0,0 l/m W-NW 0,50 h 177 W/m 15,7 km/h (3 Bft)
23.10.2017 17:00 9,1 C 77 % 1021,8 hPa 0,0 l/m W-NW 0,08 h 44 W/m 13,3 km/h (3 Bft)
23.10.2017 18:00 8,4 C 81 % 1022,3 hPa 0,0 l/m W 0,00 h 8 W/m 7,2 km/h (2 Bft)
23.10.2017 19:00 8,0 C 83 % 1023,0 hPa 0,0 l/m W 0,00 h 0 W/m 8,7 km/h (2 Bft)
23.10.2017 20:00 7,6 C 85 % 1023,4 hPa 0,0 l/m SW 0,00 h 0 W/m 10,0 km/h (2 Bft)
23.10.2017 21:00 7,4 C 89 % 1023,8 hPa 0,6 l/m SW 0,00 h 0 W/m 2,8 km/h (1 Bft)
23.10.2017 22:00 7,2 C 92 % 1024,1 hPa 0,6 l/m N 0,00 h 0 W/m 0,4 km/h (0 Bft)
23.10.2017 23:00 7,2 C 94 % 1024,2 hPa 0,0 l/m W-SW 0,00 h 0 W/m 7,5 km/h (2 Bft)
24.10.2017 00:00 7,4 C 95 % 1024,4 hPa 0,0 l/m W-SW 0,00 h 0 W/m 7,6 km/h (2 Bft)
24.10.2017 01:00 7,5 C 96 % 1024,5 hPa 0,2 l/m SW 0,00 h 0 W/m 11,0 km/h (2 Bft)
24.10.2017 02:00 7,6 C 96 % 1024,6 hPa 0,0 l/m W-SW 0,00 h 0 W/m 9,0 km/h (2 Bft)
24.10.2017 03:00 7,7 C 96 % 1024,8 hPa 0,2 l/m SW 0,00 h 0 W/m 8,9 km/h (2 Bft)
24.10.2017 04:00 7,7 C 96 % 1025,0 hPa 0,0 l/m SW 0,00 h 0 W/m 2,3 km/h (1 Bft)
24.10.2017 05:00 7,7 C 97 % 1025,1 hPa 0,0 l/m SW 0,00 h 0 W/m 8,3 km/h (2 Bft)
24.10.2017 06:00 7,6 C 97 % 1025,2 hPa 0,0 l/m SW 0,00 h 0 W/m 9,1 km/h (2 Bft)
24.10.2017 07:00 7,2 C 97 % 1025,4 hPa 0,0 l/m SW 0,00 h 5 W/m 12,9 km/h (3 Bft)
24.10.2017 08:00 7,2 C 97 % 1025,8 hPa 0,0 l/m S-SW 0,00 h 5 W/m 9,2 km/h (2 Bft)
24.10.2017 09:00 7,4 C 97 % 1025,9 hPa 0,0 l/m S-SW 0,08 h 42 W/m 8,4 km/h (2 Bft)
24.10.2017 10:00 9,0 C 94 % 1026,1 hPa 0,0 l/m S-SW 0,33 h 187 W/m 4,8 km/h (1 Bft)
24.10.2017 11:00 10,4 C 89 % 1026,2 hPa 0,0 l/m W-SW 1,00 h 314 W/m 12,1 km/h (2 Bft)
24.10.2017 12:00 11,8 C 84 % 1025,7 hPa 0,0 l/m SW 0,83 h 431 W/m 13,0 km/h (3 Bft)
24.10.2017 13:00 13,1 C 80 % 1025,3 hPa 0,0 l/m SW 1,00 h 401 W/m 12,6 km/h (3 Bft)
24.10.2017 14:00 14,3 C 76 % 1024,7 hPa 0,0 l/m SW 1,00 h 380 W/m 13,7 km/h (3 Bft)
24.10.2017 15:00 14,3 C 72 % 1024,3 hPa 0,0 l/m SW 1,00 h 290 W/m 11,4 km/h (2 Bft)
24.10.2017 16:00 14,3 C 72 % 1024,1 hPa 0,0 l/m SW 0,92 h 197 W/m 11,0 km/h (2 Bft)
24.10.2017 17:00 13,2 C 76 % 1024,1 hPa 0,0 l/m SW 0,25 h 48 W/m 7,3 km/h (2 Bft)
24.10.2017 18:00 11,0 C 83 % 1024,3 hPa 0,0 l/m N 0,00 h 7 W/m 0,7 km/h (0 Bft)
24.10.2017 19:00 9,5 C 88 % 1024,6 hPa 0,0 l/m N 0,00 h 0 W/m 0,0 km/h (0 Bft)
24.10.2017 20:00 8,3 C 92 % 1024,7 hPa 0,0 l/m N 0,00 h 0 W/m 0,0 km/h (0 Bft)
24.10.2017 21:00 7,5 C 94 % 1024,8 hPa 0,0 l/m N 0,00 h 0 W/m 0,0 km/h (0 Bft)
24.10.2017 22:00 6,9 C 95 % 1024,8 hPa 0,0 l/m N 0,00 h 0 W/m 0,0 km/h (0 Bft)
24.10.2017 23:00 6,4 C 96 % 1024,7 hPa 0,0 l/m N 0,00 h 0 W/m 0,0 km/h (0 Bft)
25.10.2017 00:00 6,3 C 96 % 1024,5 hPa 0,0 l/m N 0,00 h 0 W/m 0,0 km/h (0 Bft)
25.10.2017 01:00 6,0 C 96 % 1024,5 hPa 0,0 l/m N 0,00 h 0 W/m 0,0 km/h (0 Bft)
25.10.2017 02:00 5,8 C 97 % 1024,4 hPa 0,0 l/m N 0,00 h 0 W/m 0,0 km/h (0 Bft)
25.10.2017 03:00 5,5 C 96 % 1024,1 hPa 0,0 l/m N 0,00 h 0 W/m 0,0 km/h (0 Bft)
25.10.2017 04:00 5,1 C 97 % 1023,7 hPa 0,0 l/m N 0,00 h 0 W/m 0,0 km/h (0 Bft)
25.10.2017 05:00 4,9 C 97 % 1023,7 hPa 0,0 l/m N 0,00 h 0 W/m 0,0 km/h (0 Bft)
25.10.2017 06:00 4,7 C 97 % 1023,6 hPa 0,0 l/m N 0,00 h 0 W/m 0,0 km/h (0 Bft)
25.10.2017 07:00 4,3 C 97 % 1023,6 hPa 0,0 l/m N 0,00 h 0 W/m 0,0 km/h (0 Bft)
25.10.2017 08:00 4,2 C 97 % 1023,9 hPa 0,0 l/m N 0,00 h 0 W/m 0,0 km/h (0 Bft)
25.10.2017 09:00 5,0 C 97 % 1024,3 hPa 0,0 l/m N 0,00 h 86 W/m 0,4 km/h (0 Bft)
25.10.2017 10:00 7,4 C 97 % 1024,6 hPa 0,0 l/m SW 0,33 h 196 W/m 1,6 km/h (1 Bft)
25.10.2017 11:00 11,0 C 91 % 1024,8 hPa 0,0 l/m SW 1,00 h 350 W/m 7,0 km/h (2 Bft)
25.10.2017 12:00 13,2 C 83 % 1024,5 hPa 0,0 l/m S-SW 1,00 h 442 W/m 12,2 km/h (2 Bft)
25.10.2017 13:00 14,7 C 80 % 1024,0 hPa 0,0 l/m S-SW 0,75 h 371 W/m 12,2 km/h (2 Bft)
25.10.2017 14:00 16,3 C 76 % 1023,4 hPa 0,0 l/m S-SW 1,00 h 428 W/m 13,2 km/h (3 Bft)
25.10.2017 15:00 17,4 C 71 % 1023,1 hPa 0,0 l/m S-SW 1,00 h 368 W/m 11,4 km/h (2 Bft)
25.10.2017 16:00 16,0 C 76 % 1023,1 hPa 0,0 l/m SW 0,08 h 100 W/m 7,2 km/h (2 Bft)
25.10.2017 17:00 15,2 C 80 % 1023,1 hPa 0,0 l/m N 0,00 h 42 W/m 1,3 km/h (1 Bft)
25.10.2017 18:00 13,0 C 87 % 1023,5 hPa 0,0 l/m N 0,00 h 6 W/m 0,0 km/h (0 Bft)
25.10.2017 19:00 11,7 C 92 % 1023,9 hPa 0,0 l/m N 0,00 h 0 W/m 2,3 km/h (1 Bft)
25.10.2017 20:00 11,2 C 92 % 1023,9 hPa 0,0 l/m SW 0,00 h 0 W/m 1,5 km/h (1 Bft)
25.10.2017 21:00 10,3 C 94 % 1024,2 hPa 0,0 l/m N 0,00 h 0 W/m 0,0 km/h (0 Bft)
25.10.2017 22:00 9,7 C 96 % 1024,6 hPa 0,0 l/m N 0,00 h 0 W/m 0,0 km/h (0 Bft)
25.10.2017 23:00 9,0 C 96 % 1025,1 hPa 0,0 l/m N 0,00 h 0 W/m 0,0 km/h (0 Bft)
26.10.2017 00:00 8,4 C 97 % 1025,3 hPa 0,0 l/m N 0,00 h 0 W/m 0,0 km/h (0 Bft)
26.10.2017 01:00 7,6 C 97 % 1025,2 hPa 0,0 l/m N 0,00 h 0 W/m 0,0 km/h (0 Bft)
26.10.2017 02:00 7,2 C 97 % 1025,5 hPa 0,0 l/m N 0,00 h 0 W/m 0,0 km/h (0 Bft)
26.10.2017 03:00 6,8 C 97 % 1025,4 hPa 0,0 l/m N 0,00 h 0 W/m 0,0 km/h (0 Bft)
26.10.2017 04:00 6,5 C 98 % 1025,1 hPa 0,0 l/m N 0,00 h 0 W/m 0,0 km/h (0 Bft)
26.10.2017 05:00 6,2 C 98 % 1024,9 hPa 0,0 l/m N 0,00 h 0 W/m 0,0 km/h (0 Bft)
26.10.2017 06:00 5,7 C 97 % 1025,2 hPa 0,0 l/m N 0,00 h 0 W/m 0,0 km/h (0 Bft)
26.10.2017 07:00 5,4 C 97 % 1025,1 hPa 0,0 l/m N 0,00 h 0 W/m 0,0 km/h (0 Bft)
26.10.2017 08:00 5,3 C 97 % 1024,7 hPa 0,0 l/m N 0,00 h 0 W/m 0,0 km/h (0 Bft)
26.10.2017 09:00 5,9 C 98 % 1024,9 hPa 0,0 l/m N 0,42 h 158 W/m 0,0 km/h (0 Bft)
26.10.2017 10:00 9,0 C 97 % 1025,0 hPa 0,0 l/m N 1,00 h 269 W/m 0,7 km/h (0 Bft)
26.10.2017 11:00 12,2 C 91 % 1024,8 hPa 0,0 l/m SW 0,92 h 387 W/m 5,3 km/h (1 Bft)
26.10.2017 12:00 15,2 C 82 % 1024,4 hPa 0,0 l/m S-SW 1,00 h 474 W/m 11,2 km/h (2 Bft)
26.10.2017 13:00 17,0 C 78 % 1023,6 hPa 0,0 l/m S-SW 1,00 h 468 W/m 12,1 km/h (2 Bft)
26.10.2017 14:00 18,2 C 74 % 1023,1 hPa 0,0 l/m S 1,00 h 419 W/m 11,4 km/h (2 Bft)
26.10.2017 15:00 18,6 C 72 % 1022,6 hPa 0,0 l/m S-SW 1,00 h 326 W/m 11,7 km/h (2 Bft)
26.10.2017 16:00 18,4 C 71 % 1022,5 hPa 0,0 l/m S-SW 0,92 h 194 W/m 11,6 km/h (2 Bft)
26.10.2017 17:00 16,7 C 76 % 1022,5 hPa 0,0 l/m S-SW 0,17 h 42 W/m 7,5 km/h (2 Bft)
26.10.2017 18:00 14,4 C 84 % 1022,6 hPa 0,0 l/m N 0,08 h 7 W/m 0,4 km/h (0 Bft)
26.10.2017 19:00 12,4 C 91 % 1022,8 hPa 0,0 l/m N 0,00 h 0 W/m 0,0 km/h (0 Bft)
26.10.2017 20:00 11,5 C 93 % 1022,9 hPa 0,0 l/m N 0,00 h 0 W/m 0,0 km/h (0 Bft)
26.10.2017 21:00 10,4 C 95 % 1022,6 hPa 0,0 l/m N 0,00 h 0 W/m 0,0 km/h (0 Bft)
26.10.2017 22:00 9,6 C 96 % 1022,3 hPa 0,0 l/m N 0,00 h 0 W/m 0,0 km/h (0 Bft)
26.10.2017 23:00 9,1 C 97 % 1021,9 hPa 0,0 l/m S-SW 0,00 h 0 W/m 0,7 km/h (0 Bft)
27.10.2017 00:00 10,4 C 96 % 1021,4 hPa 0,0 l/m SW 0,00 h 0 W/m 9,8 km/h (2 Bft)
27.10.2017 01:00 10,8 C 94 % 1021,0 hPa 0,0 l/m SW 0,00 h 0 W/m 3,8 km/h (1 Bft)
27.10.2017 02:00 10,2 C 93 % 1020,5 hPa 0,0 l/m SW 0,00 h 0 W/m 1,3 km/h (1 Bft)
27.10.2017 03:00 9,6 C 93 % 1019,8 hPa 0,0 l/m N 0,00 h 0 W/m 0,0 km/h (0 Bft)
27.10.2017 04:00 8,9 C 94 % 1019,4 hPa 0,0 l/m N 0,00 h 0 W/m 0,0 km/h (0 Bft)
27.10.2017 05:00 8,6 C 95 % 1018,9 hPa 0,0 l/m N 0,00 h 0 W/m 0,0 km/h (0 Bft)
27.10.2017 06:00 8,8 C 96 % 1018,5 hPa 0,0 l/m N 0,00 h 0 W/m 0,5 km/h (0 Bft)
27.10.2017 07:00 8,8 C 96 % 1018,5 hPa 0,0 l/m SW 0,00 h 0 W/m 0,5 km/h (0 Bft)
27.10.2017 08:00 9,0 C 96 % 1018,9 hPa 0,0 l/m W-SW 0,00 h 0 W/m 11,3 km/h (2 Bft)
27.10.2017 09:00 11,5 C 88 % 1019,2 hPa 0,0 l/m W-NW 0,17 h 111 W/m 20,9 km/h (4 Bft)
27.10.2017 10:00 12,4 C 82 % 1020,1 hPa 0,2 l/m W-NW 0,00 h 68 W/m 23,6 km/h (4 Bft)
27.10.2017 11:00 10,7 C 91 % 1021,8 hPa 0,2 l/m N-NO 0,00 h 92 W/m 22,9 km/h (4 Bft)
27.10.2017 12:00 10,4 C 89 % 1023,2 hPa 0,2 l/m N 0,42 h 264 W/m 22,5 km/h (4 Bft)
27.10.2017 13:00 11,2 C 80 % 1023,7 hPa 0,0 l/m N-NW 0,42 h 332 W/m 23,0 km/h (4 Bft)
27.10.2017 14:00 12,2 C 72 % 1023,8 hPa 0,0 l/m N 1,00 h 468 W/m 23,5 km/h (4 Bft)
27.10.2017 15:00 12,5 C 68 % 1024,2 hPa 0,0 l/m N-NW 0,92 h 357 W/m 17,4 km/h (3 Bft)
27.10.2017 16:00 11,7 C 70 % 1025,1 hPa 0,0 l/m N-NW 0,58 h 145 W/m 15,8 km/h (3 Bft)
27.10.2017 17:00 10,0 C 80 % 1026,0 hPa 0,0 l/m NW 0,25 h 40 W/m 6,6 km/h (2 Bft)
27.10.2017 18:00 9,0 C 79 % 1026,8 hPa 0,0 l/m N-NW 0,00 h 5 W/m 13,1 km/h (3 Bft)
27.10.2017 19:00 8,3 C 80 % 1027,5 hPa 0,0 l/m N-NW 0,00 h 0 W/m 9,9 km/h (2 Bft)
27.10.2017 20:00 7,3 C 83 % 1028,0 hPa 0,0 l/m NW 0,00 h 0 W/m 1,5 km/h (1 Bft)
27.10.2017 21:00 6,1 C 87 % 1028,2 hPa 0,0 l/m N 0,00 h 0 W/m 0,0 km/h (0 Bft)
27.10.2017 22:00 5,1 C 88 % 1028,4 hPa 0,0 l/m N 0,00 h 0 W/m 0,0 km/h (0 Bft)
27.10.2017 23:00 4,1 C 90 % 1028,5 hPa 0,0 l/m N 0,00 h 0 W/m 0,0 km/h (0 Bft)
28.10.2017 00:00 3,4 C 92 % 1028,4 hPa 0,0 l/m N 0,00 h 0 W/m 0,0 km/h (0 Bft)
28.10.2017 01:00 2,9 C 93 % 1028,2 hPa 0,0 l/m N 0,00 h 0 W/m 0,0 km/h (0 Bft)
28.10.2017 02:00 2,4 C 93 % 1027,9 hPa 0,0 l/m N 0,00 h 0 W/m 0,0 km/h (0 Bft)
28.10.2017 03:00 2,2 C 94 % 1027,3 hPa 0,0 l/m N 0,00 h 0 W/m 0,0 km/h (0 Bft)
28.10.2017 04:00 1,8 C 94 % 1026,5 hPa 0,0 l/m N 0,00 h 0 W/m 0,0 km/h (0 Bft)
28.10.2017 05:00 1,7 C 95 % 1026,5 hPa 0,0 l/m N 0,00 h 0 W/m 0,0 km/h (0 Bft)
28.10.2017 06:00 1,4 C 95 % 1026,1 hPa 0,0 l/m N 0,00 h 0 W/m 0,3 km/h (0 Bft)
28.10.2017 07:00 1,0 C 95 % 1025,8 hPa 0,0 l/m N 0,00 h 0 W/m 0,3 km/h (0 Bft)
28.10.2017 08:00 0,9 C 96 % 1025,9 hPa 0,0 l/m N 0,00 h 28 W/m 0,4 km/h (0 Bft)
28.10.2017 09:00 3,5 C 97 % 1025,9 hPa 0,0 l/m W 0,08 h 99 W/m 6,6 km/h (2 Bft)
28.10.2017 10:00 5,8 C 95 % 1026,0 hPa 0,0 l/m W 0,08 h 123 W/m 12,9 km/h (3 Bft)
28.10.2017 11:00 7,6 C 86 % 1025,3 hPa 0,0 l/m W-SW 0,58 h 251 W/m 16,2 km/h (3 Bft)
28.10.2017 12:00 8,2 C 82 % 1024,7 hPa 0,0 l/m W-SW 0,17 h 247 W/m 19,8 km/h (4 Bft)
28.10.2017 13:00 9,2 C 77 % 1023,7 hPa 0,0 l/m W-SW 0,67 h 303 W/m 26,1 km/h (4 Bft)
28.10.2017 14:00 9,3 C 74 % 1023,0 hPa 0,0 l/m W 0,25 h 217 W/m 24,3 km/h (4 Bft)
28.10.2017 15:00 9,2 C 75 % 1022,2 hPa 0,0 l/m W 0,00 h 122 W/m 19,3 km/h (3 Bft)
28.10.2017 16:00 9,2 C 70 % 1021,9 hPa 0,0 l/m W 0,00 h 72 W/m 18,0 km/h (3 Bft)
28.10.2017 17:00 8,8 C 72 % 1021,5 hPa 0,0 l/m W-SW 0,00 h 18 W/m 16,1 km/h (3 Bft)
28.10.2017 18:00 8,5 C 73 % 1021,1 hPa 0,0 l/m W-SW 0,00 h 0 W/m 18,8 km/h (3 Bft)
28.10.2017 19:00 8,2 C 78 % 1021,0 hPa 0,0 l/m W-SW 0,00 h 0 W/m 22,8 km/h (4 Bft)
28.10.2017 20:00 7,8 C 79 % 1020,7 hPa 0,0 l/m W-SW 0,00 h 0 W/m 26,8 km/h (4 Bft)
28.10.2017 21:00 7,6 C 77 % 1020,3 hPa 0,0 l/m SW 0,00 h 0 W/m 25,2 km/h (4 Bft)
28.10.2017 22:00 7,6 C 77 % 1019,3 hPa 0,0 l/m W-SW 0,00 h 0 W/m 30,6 km/h (5 Bft)
28.10.2017 23:00 7,6 C 77 % 1018,3 hPa 0,0 l/m W-SW 0,00 h 0 W/m 31,4 km/h (5 Bft)
29.10.2017 00:00 7,2 C 79 % 1017,3 hPa 0,2 l/m W-SW 0,00 h 0 W/m 29,2 km/h (5 Bft)
29.10.2017 01:00 7,1 C 79 % 1016,5 hPa 0,0 l/m W-SW 0,00 h 0 W/m 35,7 km/h (5 Bft)
29.10.2017 02:00 7,0 C 81 % 1015,1 hPa 0,0 l/m W-SW 0,00 h 0 W/m 38,6 km/h (5 Bft)
29.10.2017 03:00 7,5 C 81 % 1013,6 hPa 0,0 l/m W-SW 0,00 h 0 W/m 37,8 km/h (5 Bft)
29.10.2017 04:00 7,9 C 81 % 1013,0 hPa 0,0 l/m W-SW 0,00 h 0 W/m 38,6 km/h (5 Bft)
29.10.2017 05:00 7,8 C 82 % 1012,1 hPa 0,0 l/m W-SW 0,00 h 0 W/m 39,4 km/h (6 Bft)
29.10.2017 06:00 7,6 C 85 % 1011,2 hPa 0,0 l/m W-SW 0,00 h 0 W/m 45,5 km/h (6 Bft)
29.10.2017 07:00 7,6 C 85 % 1011,1 hPa 0,0 l/m W-SW 0,00 h 9 W/m 40,4 km/h (6 Bft)
29.10.2017 08:00 7,8 C 87 % 1011,1 hPa 0,0 l/m W-SW 0,00 h 13 W/m 34,5 km/h (5 Bft)
29.10.2017 09:00 7,7 C 91 % 1011,1 hPa 0,2 l/m W-SW 0,00 h 33 W/m 33,1 km/h (5 Bft)
29.10.2017 10:00 8,1 C 92 % 1011,2 hPa 0,0 l/m W-SW 0,00 h 61 W/m 34,3 km/h (5 Bft)
29.10.2017 11:00 8,4 C 92 % 1011,3 hPa 0,0 l/m W-SW 0,00 h 121 W/m 37,8 km/h (5 Bft)
29.10.2017 12:00 8,6 C 93 % 1011,3 hPa 0,4 l/m W-SW 0,00 h 98 W/m 33,0 km/h (5 Bft)
29.10.2017 13:00 8,6 C 94 % 1011,5 hPa 0,8 l/m W 0,00 h 95 W/m 31,8 km/h (5 Bft)
29.10.2017 14:00 7,7 C 94 % 1013,0 hPa 2,6 l/m W-NW 0,00 h 39 W/m 18,9 km/h (3 Bft)
29.10.2017 15:00 7,2 C 94 % 1013,8 hPa 0,8 l/m W-NW 0,00 h 37 W/m 16,9 km/h (3 Bft)
29.10.2017 16:00 7,2 C 94 % 1014,9 hPa 0,2 l/m W-NW 0,00 h 16 W/m 14,7 km/h (3 Bft)
29.10.2017 17:00 7,0 C 94 % 1015,6 hPa 0,0 l/m N 0,00 h 5 W/m 0,0 km/h (0 Bft)
29.10.2017 18:00 6,4 C 94 % 1016,2 hPa 0,2 l/m N 0,00 h 0 W/m 0,0 km/h (0 Bft)
29.10.2017 19:00 5,5 C 95 % 1016,4 hPa 0,0 l/m N 0,00 h 0 W/m 0,8 km/h (0 Bft)
29.10.2017 20:00 4,5 C 94 % 1017,0 hPa 0,0 l/m N-NW 0,00 h 0 W/m 2,1 km/h (1 Bft)
29.10.2017 21:00 3,5 C 94 % 1018,1 hPa 0,0 l/m N-NW 0,00 h 0 W/m 2,5 km/h (1 Bft)
29.10.2017 22:00 3,4 C 95 % 1018,8 hPa 0,0 l/m N 0,00 h 0 W/m 0,7 km/h (0 Bft)
29.10.2017 23:00 2,4 C 95 % 1018,9 hPa 0,0 l/m N-NW 0,00 h 0 W/m 0,7 km/h (0 Bft)
Min-Datum _ 28.10.17 27.10.17 29.10.17 - - - - 23.10.17
_ Min-Zeit 08:10 15:55 07:55 - - - - 13:55
Minimum _ 0,7 C 63 % 1010,7 hPa - - - - 0,0 km/h (0 Bft)
Max-Datum _ 26.10.17 25.10.17 27.10.17 29.10.17 - 23.10.17 24.10.17 29.10.17
_ Max-Zeit 15:50 05:00 23:30 14:15 - 10:30 12:45 06:05
Maximum _ 18,8 C 100 % 1028,6 hPa 2,6 l/m - 0,08 h 682 W/m 53,1 km/h
SW (7 Bft)
Durchschnitt _ 8,4 C 88 % 1022,1 hPa #8,0 l/m W-SW #25:30 h 170 W/m 10,0 km/h (2 Bft)